createdAt,value
2022-11-02T00:00:29.772Z,66.33
2022-11-02T00:02:58.222Z,65.81
2022-11-02T00:05:26.310Z,65.57
2022-11-02T00:07:54.600Z,65.22
2022-11-02T00:10:23.459Z,64.80
2022-11-02T00:12:53.300Z,64.82
2022-11-02T00:15:21.046Z,64.63
2022-11-02T00:17:51.545Z,64.30
2022-11-02T00:20:21.490Z,64.25
2022-11-02T00:22:53.127Z,64.55
2022-11-02T00:25:23.004Z,64.48
2022-11-02T00:27:52.224Z,64.57
2022-11-02T00:30:20.624Z,64.46
2022-11-02T00:32:48.367Z,64.16
2022-11-02T00:35:20.387Z,64.01
2022-11-02T00:38:02.664Z,64.44
2022-11-02T00:40:35.240Z,64.43
2022-11-02T00:43:06.483Z,64.41
2022-11-02T00:45:34.209Z,64.55
2022-11-02T00:48:02.290Z,64.52
2022-11-02T00:50:30.938Z,64.46
2022-11-02T00:52:58.728Z,64.81
2022-11-02T00:55:26.742Z,64.19
2022-11-02T00:57:57.819Z,64.44
2022-11-02T01:00:31.445Z,64.21
2022-11-02T01:03:03.032Z,63.77
2022-11-02T01:05:40.307Z,63.40
2022-11-02T01:08:14.305Z,63.93
2022-11-02T01:13:47.378Z,63.95
2022-11-02T01:16:16.567Z,64.24
2022-11-02T01:18:44.657Z,64.21
2022-11-02T01:21:13.668Z,64.26
2022-11-02T01:23:41.371Z,64.07
2022-11-02T01:26:12.158Z,63.76
2022-11-02T01:28:42.236Z,63.58
2022-11-02T01:31:11.862Z,63.81
2022-11-02T01:33:44.765Z,63.80
2022-11-02T01:36:14.216Z,63.51
2022-11-02T01:38:42.141Z,62.94
2022-11-02T01:41:12.291Z,62.76
2022-11-02T01:43:43.266Z,63.23
2022-11-02T01:46:17.764Z,63.09
2022-11-02T01:49:12.771Z,63.05
2022-11-02T01:52:22.079Z,63.23
2022-11-02T01:54:58.468Z,62.89
2022-11-02T01:57:39.837Z,62.37
2022-11-02T02:00:24.822Z,62.84
2022-11-02T02:03:41.540Z,62.87
2022-11-02T02:06:31.749Z,62.81
2022-11-02T02:09:07.243Z,62.74
2022-11-02T02:11:50.019Z,62.96
2022-11-02T02:14:25.129Z,63.22
2022-11-02T02:17:19.540Z,63.26
2022-11-02T02:19:59.988Z,62.63
2022-11-02T02:23:04.061Z,63.46
2022-11-02T02:26:10.712Z,62.61
2022-11-02T02:29:21.764Z,62.72
2022-11-02T02:31:59.543Z,63.02
2022-11-02T02:35:00.701Z,62.97
2022-11-02T02:37:59.122Z,62.77
2022-11-02T02:40:59.878Z,63.04
2022-11-02T03:06:51.971Z,64.61
2022-11-02T03:09:30.392Z,64.81
2022-11-02T03:12:18.597Z,65.14
2022-11-02T03:15:01.001Z,65.14
2022-11-02T03:17:40.048Z,65.19
2022-11-02T03:20:18.726Z,65.48
2022-11-02T03:22:57.862Z,65.45
2022-11-02T03:25:30.938Z,65.66
2022-11-02T03:28:07.721Z,65.48
2022-11-02T03:30:43.794Z,65.39
2022-11-02T03:33:19.969Z,65.52
2022-11-02T03:35:54.530Z,65.45
2022-11-02T03:38:26.204Z,65.48
2022-11-02T03:40:57.119Z,65.74
2022-11-02T03:43:26.717Z,65.63
2022-11-02T03:45:58.777Z,65.65
2022-11-02T03:48:33.185Z,65.79
2022-11-02T03:51:06.486Z,66.17
2022-11-02T03:53:44.513Z,66.13
2022-11-02T03:56:20.506Z,66.24
2022-11-02T03:58:54.486Z,66.13
2022-11-02T04:01:27.293Z,66.14
2022-11-02T04:03:59.526Z,66.13
2022-11-02T04:06:28.652Z,66.21
2022-11-02T04:08:56.478Z,66.00
2022-11-02T04:11:42.494Z,66.25
2022-11-02T04:14:30.977Z,66.44
2022-11-02T04:17:14.702Z,66.23
2022-11-02T04:19:50.030Z,66.14
2022-11-02T04:22:36.494Z,65.89
2022-11-02T04:25:18.427Z,66.04
2022-11-02T04:28:08.908Z,66.10
2022-11-02T04:30:48.686Z,65.95
2022-11-02T04:33:34.628Z,66.13
2022-11-02T04:36:09.715Z,66.40
2022-11-02T04:38:41.727Z,66.33
2022-11-02T04:41:45.162Z,66.16
2022-11-02T04:44:34.514Z,66.42
2022-11-02T04:47:07.489Z,66.64
2022-11-02T04:49:43.412Z,66.43
2022-11-02T04:52:17.860Z,66.39
2022-11-02T04:54:50.684Z,66.48
2022-11-02T04:57:19.664Z,66.53
2022-11-02T04:59:47.570Z,66.50
2022-11-02T05:02:15.511Z,66.55
2022-11-02T05:04:44.790Z,66.90
2022-11-02T05:07:13.981Z,66.85
2022-11-02T05:09:53.252Z,66.92
2022-11-02T05:12:36.823Z,67.14
2022-11-02T05:15:34.716Z,66.92
2022-11-02T05:18:08.277Z,66.96
2022-11-02T05:20:41.242Z,66.89
2022-11-02T05:23:32.897Z,67.04
2022-11-02T05:26:23.679Z,67.08
2022-11-02T05:28:56.750Z,67.19
2022-11-02T05:31:28.479Z,67.40
2022-11-02T05:34:01.278Z,67.15
2022-11-02T05:36:29.619Z,67.20
2022-11-02T05:39:02.044Z,67.16
2022-11-02T05:44:29.881Z,67.41
2022-11-02T05:50:17.420Z,67.27
2022-11-02T05:52:46.498Z,67.22
2022-11-02T05:55:14.692Z,67.17
2022-11-02T05:57:43.842Z,66.95
2022-11-02T06:00:12.471Z,67.36
2022-11-02T06:02:40.246Z,67.33
2022-11-02T06:05:35.012Z,67.19
2022-11-02T06:08:15.355Z,67.18
2022-11-02T06:10:59.472Z,67.19
2022-11-02T06:13:35.438Z,67.40
2022-11-02T06:16:07.903Z,67.53
2022-11-02T06:18:35.859Z,67.55
2022-11-02T06:21:04.184Z,67.43
2022-11-02T06:23:32.208Z,67.39
2022-11-02T06:26:01.286Z,67.38
2022-11-02T06:28:30.855Z,67.48
2022-11-02T06:30:59.524Z,67.61
2022-11-02T06:33:27.531Z,67.52
2022-11-02T06:35:55.745Z,67.31
2022-11-02T06:38:24.288Z,67.21
2022-11-02T06:40:56.614Z,67.40
2022-11-02T06:43:25.285Z,67.11
2022-11-02T06:45:56.718Z,67.08
2022-11-02T06:48:28.610Z,66.90
2022-11-02T06:50:58.435Z,66.49
2022-11-02T06:53:26.685Z,66.23
2022-11-02T06:55:55.199Z,66.06
2022-11-02T06:58:24.433Z,65.72
2022-11-02T07:00:58.276Z,65.51
2022-11-02T07:03:27.963Z,64.95
2022-11-02T07:05:55.814Z,64.81
2022-11-02T07:08:24.055Z,64.51
2022-11-02T07:16:33.702Z,61.64
2022-11-02T07:19:19.838Z,56.82
2022-11-02T07:21:47.926Z,52.33
2022-11-02T07:24:15.779Z,49.16
2022-11-02T07:26:43.482Z,46.30
2022-11-02T07:29:11.316Z,43.75
2022-11-02T07:31:39.057Z,41.67
2022-11-02T07:34:06.757Z,40.36
2022-11-02T07:36:35.774Z,40.11
2022-11-02T07:39:03.659Z,41.57
2022-11-02T07:41:31.515Z,40.26
2022-11-02T07:43:59.200Z,38.58
2022-11-02T07:46:45.874Z,36.12
2022-11-02T07:49:17.349Z,34.11
2022-11-02T07:51:49.392Z,32.87
2022-11-02T07:54:17.148Z,31.66
2022-11-02T07:56:59.826Z,31.75
2022-11-02T07:59:27.492Z,30.51
2022-11-02T08:01:55.240Z,29.16
2022-11-02T08:06:59.263Z,26.54
2022-11-02T08:09:27.290Z,26.17
2022-11-02T08:11:57.442Z,25.75
2022-11-02T08:14:25.126Z,24.80
2022-11-02T08:16:52.989Z,23.14
2022-11-02T08:19:20.661Z,22.84
2022-11-02T08:21:48.345Z,22.19
2022-11-02T08:24:17.384Z,22.81
2022-11-02T08:26:46.090Z,22.45
2022-11-02T08:29:15.393Z,21.77
2022-11-02T08:31:43.080Z,21.45
2022-11-02T08:34:11.903Z,22.36
2022-11-02T08:36:39.617Z,22.14
2022-11-02T08:39:07.476Z,21.82
2022-11-02T08:41:36.511Z,22.55
2022-11-02T08:44:04.422Z,21.58
2022-11-02T08:46:32.272Z,22.39
2022-11-02T08:48:59.991Z,21.49
2022-11-02T08:51:27.737Z,21.25
2022-11-02T08:53:55.544Z,21.91
2022-11-02T08:56:23.242Z,22.46
2022-11-02T08:58:52.293Z,24.18
2022-11-02T09:01:20.037Z,23.57
2022-11-02T09:03:47.732Z,24.46
2022-11-02T09:06:15.412Z,24.33
2022-11-02T09:08:43.093Z,24.16
2022-11-02T09:11:10.796Z,24.54
2022-11-02T09:13:39.392Z,24.38
2022-11-02T09:16:46.631Z,25.24
2022-11-02T09:19:15.277Z,25.83
2022-11-02T09:21:42.977Z,26.82
2022-11-02T09:24:11.044Z,25.44
2022-11-02T09:26:38.909Z,26.00
2022-11-02T09:29:06.582Z,26.57
2022-11-02T09:31:35.648Z,27.60
2022-11-02T09:34:03.303Z,27.49
2022-11-02T09:36:30.982Z,26.02
2022-11-02T09:38:58.664Z,26.84
2022-11-02T09:41:34.646Z,29.20
2022-11-02T09:44:08.494Z,29.64
2022-11-02T09:46:40.829Z,30.51
2022-11-02T09:49:14.780Z,31.31
2022-11-02T09:51:45.768Z,32.41
2022-11-02T09:54:18.248Z,32.49
2022-11-02T09:56:47.028Z,32.29
2022-11-02T09:59:16.972Z,31.22
2022-11-02T10:02:06.887Z,30.77
2022-11-02T10:05:07.141Z,29.96
2022-11-02T10:07:51.603Z,29.49
2022-11-02T10:10:28.984Z,29.93
2022-11-02T10:13:04.254Z,30.51
2022-11-02T10:15:40.192Z,30.25
2022-11-02T10:18:15.862Z,27.90
2022-11-02T10:20:46.890Z,27.20
2022-11-02T10:23:20.900Z,25.94
2022-11-02T10:25:49.755Z,24.17
2022-11-02T10:28:22.017Z,22.09
2022-11-02T10:30:51.205Z,23.01
2022-11-02T10:33:27.053Z,21.78
2022-11-02T10:36:18.829Z,21.28
2022-11-02T10:39:00.512Z,20.49
2022-11-02T10:41:44.422Z,18.47
2022-11-02T10:44:33.596Z,19.90
2022-11-02T10:47:10.715Z,18.23
2022-11-02T10:50:09.452Z,18.57
2022-11-02T10:52:42.714Z,18.26
2022-11-02T10:55:19.054Z,17.69
2022-11-02T10:57:46.996Z,15.78
2022-11-02T11:00:27.209Z,16.79
2022-11-02T11:03:12.176Z,16.87
2022-11-02T11:05:59.113Z,16.65
2022-11-02T11:08:38.519Z,15.35
2022-11-02T11:11:15.955Z,14.84
2022-11-02T11:16:40.689Z,13.03
2022-11-02T11:22:26.178Z,15.97
2022-11-02T11:24:54.565Z,17.49
2022-11-02T11:27:23.155Z,18.14
2022-11-02T11:29:54.343Z,18.63
2022-11-02T11:32:29.778Z,18.19
2022-11-02T11:35:01.388Z,19.56
2022-11-02T11:37:30.833Z,21.72
2022-11-02T11:40:02.420Z,21.93
2022-11-02T11:42:35.166Z,24.52
2022-11-02T11:45:05.981Z,25.27
2022-11-02T11:47:38.319Z,26.40
2022-11-02T11:50:11.636Z,27.65
2022-11-02T11:53:10.166Z,26.99
2022-11-02T11:55:48.077Z,26.05
2022-11-02T11:58:20.977Z,26.84
2022-11-02T12:01:09.070Z,25.56
2022-11-02T12:03:53.055Z,25.37
2022-11-02T12:06:30.260Z,23.94
2022-11-02T12:09:04.965Z,23.90
2022-11-02T12:11:50.619Z,25.55
2022-11-02T12:14:33.767Z,26.52
2022-11-02T12:17:45.157Z,27.92
2022-11-02T12:20:41.848Z,29.63
2022-11-02T12:23:26.064Z,31.57
2022-11-02T12:26:05.037Z,32.23
2022-11-02T12:28:44.602Z,33.80
2022-11-02T12:31:26.132Z,35.24
2022-11-02T12:34:16.216Z,35.20
2022-11-02T12:37:32.799Z,36.96
2022-11-02T12:39:57.745Z,35.86
2022-11-02T12:42:30.620Z,36.74
2022-11-02T12:45:12.460Z,37.29
2022-11-02T12:47:54.001Z,37.04
2022-11-02T12:50:32.050Z,37.47
2022-11-02T12:53:14.824Z,36.75
2022-11-02T12:55:46.866Z,37.58
2022-11-02T12:58:20.835Z,37.79
2022-11-02T13:00:52.848Z,36.58
2022-11-02T13:03:33.545Z,37.38
2022-11-02T13:06:06.424Z,37.21
2022-11-02T13:08:39.532Z,37.90
2022-11-02T13:11:11.962Z,37.32
2022-11-02T13:13:46.184Z,36.51
2022-11-02T13:16:16.274Z,36.89
2022-11-02T13:18:48.526Z,37.21
2022-11-02T13:21:21.068Z,37.46
2022-11-02T13:23:52.665Z,36.74
2022-11-02T13:26:28.277Z,37.39
2022-11-02T13:29:03.917Z,38.94
2022-11-02T13:31:35.989Z,39.70
2022-11-02T13:34:09.032Z,39.11
2022-11-02T13:36:38.359Z,40.28
2022-11-02T13:39:13.277Z,39.40
2022-11-02T13:42:14.131Z,39.86
2022-11-02T13:45:18.506Z,39.15
2022-11-02T13:48:09.610Z,39.47
2022-11-02T13:50:43.664Z,39.82
2022-11-02T13:53:18.359Z,41.66
2022-11-02T13:55:50.619Z,41.25
2022-11-02T13:58:25.004Z,41.72
2022-11-02T14:00:59.550Z,41.63
2022-11-02T14:03:29.444Z,41.97
2022-11-02T14:06:00.291Z,43.20
2022-11-02T14:08:34.066Z,42.84
2022-11-02T14:11:24.205Z,42.03
2022-11-02T14:14:19.324Z,43.56
2022-11-02T14:16:59.128Z,43.86
2022-11-02T14:19:33.054Z,43.83
2022-11-02T14:22:12.997Z,43.29
2022-11-02T14:25:23.722Z,44.19
2022-11-02T14:27:55.009Z,44.39
2022-11-02T14:30:45.773Z,43.95
2022-11-02T14:33:32.698Z,44.57
2022-11-02T14:36:04.782Z,44.86
2022-11-02T14:38:47.034Z,43.73
2022-11-02T14:41:42.630Z,43.59
2022-11-02T14:44:31.320Z,45.06
2022-11-02T14:47:07.795Z,45.22
2022-11-02T14:49:40.231Z,44.56
2022-11-02T14:52:22.145Z,45.78
2022-11-02T14:54:54.415Z,45.34
2022-11-02T14:57:25.913Z,46.63
2022-11-02T14:59:57.591Z,45.82
2022-11-02T15:02:30.268Z,46.78
2022-11-02T15:05:01.673Z,47.06
2022-11-02T15:07:36.434Z,47.09
2022-11-02T15:10:08.345Z,48.27
2022-11-02T15:12:38.618Z,48.39
2022-11-02T15:15:29.606Z,48.23
2022-11-02T15:18:20.870Z,48.76
2022-11-02T15:21:26.002Z,48.39
2022-11-02T15:24:19.849Z,48.12
2022-11-02T15:26:53.616Z,47.81
2022-11-02T15:29:33.083Z,49.13
2022-11-02T15:32:02.570Z,48.62
2022-11-02T15:34:36.393Z,49.40
2022-11-02T15:37:06.502Z,50.39
2022-11-02T15:39:34.512Z,50.90
2022-11-02T15:42:05.145Z,51.67
2022-11-02T15:45:09.445Z,51.81
2022-11-02T15:47:57.714Z,52.95
2022-11-02T15:50:36.736Z,53.31
2022-11-02T15:53:27.887Z,53.45
2022-11-02T15:56:09.361Z,54.13
2022-11-02T15:58:50.374Z,54.07
2022-11-02T16:01:20.534Z,54.59
2022-11-02T16:03:55.555Z,55.23
2022-11-02T16:06:27.250Z,55.26
2022-11-02T16:08:58.347Z,55.61
2022-11-02T16:11:26.770Z,55.78
2022-11-02T16:14:08.705Z,55.92
2022-11-02T16:16:47.822Z,55.94
2022-11-02T16:19:20.122Z,56.78
2022-11-02T16:21:49.306Z,57.01
2022-11-02T16:24:19.761Z,57.34
2022-11-02T16:26:51.463Z,57.75
2022-11-02T16:29:31.225Z,57.99
2022-11-02T16:32:03.148Z,58.29
2022-11-02T16:34:33.009Z,58.50
2022-11-02T16:37:10.121Z,58.81
2022-11-02T16:39:43.921Z,59.15
2022-11-02T16:42:17.487Z,59.52
2022-11-02T16:44:56.209Z,59.42
2022-11-02T16:47:35.554Z,59.67
2022-11-02T16:50:05.632Z,59.93
2022-11-02T16:52:37.069Z,60.13
2022-11-02T16:55:35.644Z,59.96
2022-11-02T16:58:04.681Z,60.71
2022-11-02T17:00:32.672Z,60.93
2022-11-02T17:03:08.574Z,61.38
2022-11-02T17:05:44.040Z,61.58
2022-11-02T17:08:29.187Z,61.14
2022-11-02T17:11:01.296Z,61.49
2022-11-02T17:13:31.875Z,61.73
2022-11-02T17:16:06.029Z,61.91
2022-11-02T17:18:34.179Z,62.14
2022-11-02T17:21:24.244Z,61.83
2022-11-02T17:23:56.546Z,62.22
2022-11-02T17:26:43.781Z,62.07
2022-11-02T17:29:40.550Z,62.41
2022-11-02T17:32:16.381Z,62.78
2022-11-02T17:34:50.238Z,63.21
2022-11-02T17:37:26.886Z,63.45
2022-11-02T17:39:56.088Z,63.87
2022-11-02T17:43:06.142Z,63.55
2022-11-02T18:00:10.955Z,64.01
2022-11-02T18:02:43.297Z,64.31
2022-11-02T18:05:27.284Z,64.10
2022-11-02T18:07:56.765Z,64.69
2022-11-02T18:10:53.773Z,64.48
2022-11-02T18:13:24.069Z,64.99
2022-11-02T18:15:55.721Z,65.16
2022-11-02T18:18:23.755Z,65.34
2022-11-02T18:20:52.002Z,65.29
2022-11-02T18:23:20.626Z,65.72
2022-11-02T18:25:51.760Z,65.68
2022-11-02T18:28:22.377Z,66.09
2022-11-02T18:30:51.213Z,66.73
2022-11-02T18:33:22.158Z,67.10
2022-11-02T18:35:50.498Z,67.27
2022-11-02T18:38:18.452Z,67.65
2022-11-02T18:40:46.715Z,67.92
2022-11-02T18:43:14.786Z,67.77
2022-11-02T18:45:43.670Z,67.75
2022-11-02T18:48:11.631Z,68.13
2022-11-02T18:51:07.718Z,67.63
2022-11-02T18:53:35.623Z,68.05
2022-11-02T18:56:03.765Z,67.97
2022-11-02T18:58:31.713Z,68.03
2022-11-02T19:01:06.716Z,67.95
2022-11-02T19:03:35.005Z,67.82
2022-11-02T19:06:23.427Z,67.92
2022-11-02T19:09:09.417Z,67.82
2022-11-02T19:11:41.267Z,67.96
2022-11-02T19:14:38.891Z,67.68
2022-11-02T19:17:25.054Z,67.73
2022-11-02T19:19:53.469Z,68.08
2022-11-02T19:22:24.344Z,68.33
2022-11-02T19:24:53.017Z,68.44
2022-11-02T19:27:22.460Z,68.41
2022-11-02T19:29:51.116Z,68.49
2022-11-02T19:32:19.790Z,68.27
2022-11-02T19:34:48.134Z,68.77
2022-11-02T19:37:16.012Z,68.83
2022-11-02T19:39:45.321Z,68.98
2022-11-02T19:42:13.428Z,69.04
2022-11-02T19:44:42.951Z,69.29
2022-11-02T19:47:11.385Z,69.27
2022-11-02T19:49:48.139Z,69.24
2022-11-02T19:52:50.004Z,69.25
2022-11-02T19:55:23.626Z,69.29
2022-11-02T19:57:52.135Z,69.40
2022-11-02T20:00:20.496Z,69.20
2022-11-02T20:02:51.081Z,69.42
2022-11-02T20:05:19.057Z,69.31
2022-11-02T20:07:47.613Z,68.99
2022-11-02T20:10:15.740Z,69.36
2022-11-02T20:12:44.958Z,69.40
2022-11-02T20:15:13.045Z,69.54
2022-11-02T20:18:05.629Z,69.39
2022-11-02T20:20:34.553Z,69.73
2022-11-02T20:23:04.187Z,70.02
2022-11-02T20:25:37.465Z,69.73
2022-11-02T20:28:11.393Z,70.13
2022-11-02T20:30:41.698Z,70.10
2022-11-02T20:33:10.098Z,70.47
2022-11-02T20:35:39.463Z,70.28
2022-11-02T20:38:08.196Z,70.56
2022-11-02T20:40:41.346Z,70.33
2022-11-02T20:43:12.111Z,70.34
2022-11-02T20:45:40.182Z,70.37
2022-11-02T20:48:08.520Z,70.51
2022-11-02T20:50:36.798Z,70.69
2022-11-02T20:53:05.228Z,70.54
2022-11-02T20:55:33.273Z,70.87
2022-11-02T20:58:01.499Z,71.10
2022-11-02T21:00:30.823Z,70.69
2022-11-02T21:03:00.003Z,71.12
2022-11-02T21:05:28.474Z,70.81
2022-11-02T21:07:56.350Z,71.58
2022-11-02T21:10:24.415Z,71.43
2022-11-02T21:13:09.732Z,71.70
2022-11-02T21:15:39.401Z,71.30
2022-11-02T21:18:07.290Z,71.66
2022-11-02T21:20:35.473Z,71.88
2022-11-02T21:23:04.665Z,71.67
2022-11-02T21:25:33.520Z,71.44
2022-11-02T21:28:02.019Z,71.46
2022-11-02T21:30:31.300Z,71.80
2022-11-02T21:33:00.553Z,71.87
2022-11-02T21:35:36.830Z,71.98
2022-11-02T21:38:07.017Z,71.62
2022-11-02T21:40:35.866Z,71.57
2022-11-02T21:43:04.171Z,71.74
2022-11-02T21:45:37.431Z,71.62
2022-11-02T21:48:07.344Z,71.69
2022-11-02T21:50:35.213Z,71.72
2022-11-02T21:53:03.285Z,71.29
2022-11-02T21:55:31.202Z,71.75
2022-11-02T21:57:59.144Z,71.84
2022-11-02T22:00:46.996Z,72.05
2022-11-02T22:03:15.301Z,72.13
2022-11-02T22:05:59.409Z,71.83
2022-11-02T22:08:39.521Z,72.11
2022-11-02T22:11:08.903Z,72.14
2022-11-02T22:13:37.511Z,72.39
2022-11-02T22:16:14.735Z,72.49
2022-11-02T22:18:45.109Z,72.44
2022-11-02T22:21:14.160Z,72.60
2022-11-02T22:23:42.360Z,72.30
2022-11-02T22:26:12.649Z,72.38
2022-11-02T22:28:42.669Z,72.44
2022-11-02T22:31:13.472Z,72.25
2022-11-02T22:33:45.257Z,72.52
2022-11-02T22:36:15.295Z,72.36
2022-11-02T22:38:51.219Z,72.62
2022-11-02T22:41:21.203Z,72.60
2022-11-02T22:43:50.079Z,72.75
2022-11-02T22:46:17.971Z,72.49
2022-11-02T22:48:48.662Z,72.59
2022-11-02T22:51:16.506Z,72.41
2022-11-02T22:53:44.281Z,72.72
2022-11-02T22:56:14.473Z,73.02
2022-11-02T22:58:49.088Z,72.94
2022-11-02T23:01:18.848Z,72.73
2022-11-02T23:03:49.069Z,73.09
2022-11-02T23:06:18.292Z,73.35
2022-11-02T23:08:46.818Z,72.93
2022-11-02T23:11:25.165Z,73.18
2022-11-02T23:14:04.006Z,73.11
2022-11-02T23:17:39.473Z,72.86
2022-11-02T23:20:19.209Z,72.77
2022-11-02T23:23:06.866Z,73.03
2022-11-02T23:25:40.036Z,72.96
2022-11-02T23:31:54.634Z,73.30
2022-11-02T23:34:25.216Z,73.36
2022-11-02T23:37:24.303Z,73.38
2022-11-02T23:39:56.306Z,73.74
2022-11-02T23:42:25.135Z,73.35
2022-11-02T23:45:05.320Z,73.32
2022-11-02T23:47:51.271Z,73.24
2022-11-02T23:50:34.289Z,73.04
2022-11-02T23:53:21.231Z,73.68
2022-11-02T23:56:07.445Z,73.40
2022-11-02T23:58:35.239Z,73.43
